KNPA/NPA METAR and TAF weather

Enter ICAO airport designator
Station Type Date Time Source
KNPA METAR 2022/12/05 15:31 UTC NOAA

KNPA 051531Z 00000KT 3/4SM BR BKN002 OVC006 19/18 A3010 RMK VIS SE-S 1/2 AND NW-N 1 T01890183


Station Type Date Time Source
KNPA Decoded METAR 2022/12/05 15:31 UTC NOAA

Pensacola, Naval Air Station, FL, United States (KNPA) 30-21-22N 087-19-24W 10M
Dec 05, 2022 - 10:31 AM EST / 2022.12.05 1531 UTC
Wind: Calm:0
Visibility: 3/4 mile(s):0
Sky conditions: overcast
Weather: mist
Temperature: 66.0 F (18.9 C)
Dew Point: 64.9 F (18.3 C)
Relative Humidity: 96%
Pressure (altimeter): 30.1 in. Hg (1019 hPa)
ob: KNPA 051531Z 00000KT 3/4SM BR BKN002 OVC006 19/18 A3010 RMK VIS SE-S 1/2 AND NW-N 1 T01890183
cycle: 15

Station Type Date Time Source
KNPA TAF 2022/12/05 15:58 UTC NOAA

TAF KNPA 0515/0615 VRB03KT 3200 BR BKN003 BKN250 QNH3002INS
TEMPO 0515/0516 0800 FG VV002
FM051600 18005KT 9999 BKN008 BKN250 QNH3000INS
FM051900 18007KT 9999 SCT020 BKN040 BKN250 QNH2999INS
TEMPO 0519/0521 BKN015
FM052200 18005KT 9999 FEW020 SCT040 BKN250 QNH2999INS
FM060200 VRB03KT 6000 BR SCT002 BKN250 QNH3002INS
TEMPO 0602/0604 1600 BR BKN002
FM060400 00000KT 0400 FG VV002 QNH3003INS T23/0519Z T16/0612Z FN20033

Example: see airport list